Time;durP1;ratioP1;P1;durP2;ratioP2;P2;SDS_P1;SDS_P2;PMS_P1;PMS_P2;Temp;Humidity;BMP_temperature;BMP_pressure;BME280_temperature;BME280_humidity;BME280_pressure;Samples;Min_cycle;Max_cycle;Signal;HPM_P1;HPM_P2
2023/05/27 00:01:29;;;;;;;25.48;6.95;;;;;;;6.87;100.00;102662.81;10479868;28;20076;-82
2023/05/27 00:06:29;;;;;;;15.13;7.47;;;;;;;6.79;100.00;102655.97;10470578;28;20067;-82
2023/05/27 00:11:30;;;;;;;17.92;6.85;;;;;;;6.66;100.00;102657.47;10497493;28;20045;-81
2023/05/27 00:16:31;;;;;;;15.35;6.68;;;;;;;6.65;100.00;102657.34;10466132;28;20063;-82
2023/05/27 00:21:32;;;;;;;17.83;8.45;;;;;;;6.53;100.00;102649.28;10502424;28;20033;-82
2023/05/27 00:26:32;;;;;;;18.55;7.13;;;;;;;6.55;100.00;102651.28;10478023;28;20048;-81
2023/05/27 00:31:33;;;;;;;26.77;7.80;;;;;;;6.64;100.00;102650.31;10478317;28;20186;-82
2023/05/27 00:36:33;;;;;;;19.00;7.85;;;;;;;6.55;100.00;102650.34;10447045;28;20805;-81
2023/05/27 00:41:33;;;;;;;14.02;6.15;;;;;;;6.46;100.00;102646.13;10452585;28;20127;-82
2023/05/27 00:46:34;;;;;;;17.08;7.18;;;;;;;6.30;100.00;102650.66;10468413;28;20120;-81
2023/05/27 00:51:35;;;;;;;27.95;8.13;;;;;;;6.28;100.00;102653.13;10450336;28;20072;-82
2023/05/27 00:56:35;;;;;;;23.83;9.38;;;;;;;6.21;100.00;102647.19;10470648;28;20043;-82
2023/05/27 01:01:38;;;;;;;15.43;7.10;;;;;;;6.25;100.00;102650.25;10452497;28;20498;-80
2023/05/27 01:07:23;;;;;;;20.25;8.30;;;;;;;6.11;100.00;102648.94;10456510;28;20435;-81
2023/05/27 01:12:24;;;;;;;19.95;6.45;;;;;;;6.00;100.00;102647.94;10465983;28;20044;-82
2023/05/27 01:17:26;;;;;;;25.67;9.93;;;;;;;5.80;100.00;102646.00;10482334;28;20036;-82
2023/05/27 01:22:28;;;;;;;29.60;8.45;;;;;;;5.83;100.00;102654.06;10443665;28;20040;-81
2023/05/27 01:27:29;;;;;;;26.15;6.95;;;;;;;5.76;100.00;102651.66;10472417;28;20052;-82
2023/05/27 01:32:47;;;;;;;23.45;8.48;;;;;;;5.65;100.00;102639.31;10488701;28;20036;-81
2023/05/27 01:37:48;;;;;;;23.63;8.02;;;;;;;5.53;100.00;102644.28;10486137;28;20048;-81
2023/05/27 01:42:49;;;;;;;15.73;8.68;;;;;;;5.50;100.00;102644.88;10473392;28;20041;-82
2023/05/27 01:47:50;;;;;;;41.45;9.85;;;;;;;5.35;100.00;102644.31;10479777;28;20037;-81
2023/05/27 01:52:51;;;;;;;22.37;8.90;;;;;;;5.32;100.00;102638.81;10481244;28;20052;-81
2023/05/27 01:57:51;;;;;;;28.48;9.63;;;;;;;5.22;100.00;102625.72;10485596;28;20166;-81
2023/05/27 02:02:52;;;;;;;19.58;8.70;;;;;;;5.17;100.00;102630.44;10480588;28;20587;-81
2023/05/27 02:07:52;;;;;;;23.33;10.32;;;;;;;5.15;100.00;102619.00;10482511;28;20202;-82
2023/05/27 02:12:53;;;;;;;23.27;8.43;;;;;;;5.14;100.00;102628.47;10479502;28;20036;-82
2023/05/27 02:17:55;;;;;;;25.65;10.32;;;;;;;4.96;100.00;102626.66;10486984;28;20384;-82
2023/05/27 02:22:56;;;;;;;25.77;8.60;;;;;;;4.84;100.00;102623.75;10484883;28;20434;-82
2023/05/27 02:27:56;;;;;;;21.27;8.48;;;;;;;4.75;100.00;102631.56;10459159;28;20112;-81
2023/05/27 02:32:57;;;;;;;20.77;9.13;;;;;;;4.74;100.00;102633.97;10439839;28;20443;-81
2023/05/27 02:37:58;;;;;;;34.53;11.13;;;;;;;4.72;100.00;102639.03;10457009;28;20055;-81
2023/05/27 02:42:58;;;;;;;28.15;11.63;;;;;;;4.73;100.00;102637.34;10435306;28;20056;-81
2023/05/27 02:48:01;;;;;;;22.80;10.70;;;;;;;4.67;100.00;102643.75;10482248;28;20141;-79
2023/05/27 02:53:01;;;;;;;;;;;;;;;4.64;100.00;102642.53;10441505;28;20032;-82
2023/05/27 02:58:03;;;;;;;30.52;9.73;;;;;;;4.60;100.00;102637.81;10474794;28;19928;-78
2023/05/27 03:03:05;;;;;;;27.10;10.23;;;;;;;4.62;100.00;102634.59;10481542;28;20040;-83
2023/05/27 03:08:06;;;;;;;25.70;11.55;;;;;;;4.50;100.00;102628.16;10464292;28;20048;-83
2023/05/27 03:13:06;;;;;;;28.30;11.93;;;;;;;4.46;100.00;102634.75;10468487;28;20064;-83
2023/05/27 03:18:07;;;;;;;24.17;13.68;;;;;;;4.41;100.00;102639.44;10454021;28;20124;-82
2023/05/27 03:23:07;;;;;;;28.23;12.40;;;;;;;4.35;100.00;102638.81;10479837;28;20610;-83
2023/05/27 03:28:07;;;;;;;31.40;11.18;;;;;;;4.36;100.00;102637.16;10465875;28;20037;-83
2023/05/27 03:33:08;;;;;;;21.05;12.18;;;;;;;4.43;100.00;102631.84;10464839;28;20151;-83
2023/05/27 03:38:09;;;;;;;27.95;11.73;;;;;;;4.39;100.00;102640.06;10468783;28;20060;-83
2023/05/27 03:43:09;;;;;;;23.40;12.65;;;;;;;4.36;100.00;102635.47;10455806;28;20056;-82
2023/05/27 03:48:10;;;;;;;40.70;13.35;;;;;;;4.40;100.00;102639.31;10517164;28;20469;-82
2023/05/27 03:53:10;;;;;;;22.08;11.30;;;;;;;4.35;100.00;102628.47;10480492;28;20462;-82
2023/05/27 03:58:13;;;;;;;35.28;12.93;;;;;;;4.34;100.00;102624.03;10486644;28;20043;-82
2023/05/27 04:03:13;;;;;;;31.25;11.38;;;;;;;4.46;100.00;102629.56;10467447;28;20032;-83
2023/05/27 04:08:14;;;;;;;28.08;13.25;;;;;;;4.52;100.00;102625.00;10464109;28;20540;-83
2023/05/27 04:13:15;;;;;;;28.17;13.30;;;;;;;4.77;100.00;102630.03;10465286;28;20067;-82
2023/05/27 04:18:15;;;;;;;36.58;13.80;;;;;;;4.88;100.00;102635.38;10482932;28;20135;-82
2023/05/27 04:23:16;;;;;;;23.85;9.45;;;;;;;4.98;100.00;102625.13;10480393;28;20036;-82
2023/05/27 04:28:16;;;;;;;26.73;10.00;;;;;;;5.34;100.00;102619.13;10488519;28;20488;-80
2023/05/27 04:33:17;;;;;;;18.08;9.80;;;;;;;5.77;100.00;102611.91;10482351;28;20040;-84
2023/05/27 04:38:20;;;;;;;24.88;9.80;;;;;;;6.18;100.00;102619.25;10479504;28;20119;-81
2023/05/27 04:43:21;;;;;;;28.98;10.18;;;;;;;6.30;100.00;102604.78;10461650;28;20033;-81
2023/05/27 04:48:23;;;;;;;30.15;12.88;;;;;;;6.52;100.00;102600.63;10467526;28;20036;-83
2023/05/27 04:53:24;;;;;;;24.60;9.80;;;;;;;6.66;100.00;102601.91;10459708;28;20087;-84
2023/05/27 04:58:25;;;;;;;20.98;10.88;;;;;;;6.73;100.00;102601.69;10477093;28;20079;-82
2023/05/27 05:03:50;;;;;;;26.98;10.77;;;;;;;7.01;100.00;102583.38;10475760;28;20119;-78
2023/05/27 05:08:51;;;;;;;27.08;8.68;;;;;;;7.40;100.00;102584.16;10460922;28;20060;-79
2023/05/27 05:13:52;;;;;;;18.80;7.65;;;;;;;8.04;100.00;102581.03;10473656;28;20533;-88
2023/05/27 05:18:52;;;;;;;18.88;8.80;;;;;;;8.88;100.00;102550.53;10504885;28;20040;-87
2023/05/27 05:23:53;;;;;;;26.92;8.55;;;;;;;9.62;100.00;102527.66;10501544;28;20041;-81
2023/05/27 05:28:53;;;;;;;19.02;6.97;;;;;;;10.96;100.00;102514.06;10521270;28;20395;-83
2023/05/27 05:33:54;;;;;;;18.42;8.30;;;;;;;11.46;100.00;102524.63;10470522;28;20563;-82
2023/05/27 05:38:54;;;;;;;21.77;9.80;;;;;;;11.83;100.00;102518.44;10469581;28;20124;-85
2023/05/27 05:43:55;;;;;;;15.63;7.80;;;;;;;12.19;100.00;102513.00;10488408;28;20187;-82
2023/05/27 05:48:55;;;;;;;16.17;6.05;;;;;;;12.96;100.00;102505.72;10452628;28;20055;-81
2023/05/27 05:53:56;;;;;;;18.45;7.50;;;;;;;13.13;100.00;102505.06;10498582;28;20049;-81
2023/05/27 05:58:56;;;;;;;29.23;6.57;;;;;;;13.89;100.00;102516.72;10490942;28;20064;-85
2023/05/27 06:03:58;;;;;;;11.65;5.65;;;;;;;14.96;100.00;102496.59;10469682;28;20127;-85
2023/05/27 06:08:58;;;;;;;19.55;9.82;;;;;;;15.52;100.00;102507.50;10482251;28;20500;-83
2023/05/27 06:13:59;;;;;;;19.42;7.07;;;;;;;15.75;100.00;102514.00;10487138;28;20040;-83
2023/05/27 06:18:59;;;;;;;17.42;7.30;;;;;;;16.50;98.76;102508.13;10464001;28;20480;-83
2023/05/27 06:23:59;;;;;;;19.88;7.15;;;;;;;16.77;94.34;102509.41;10483561;28;20056;-83
2023/05/27 06:29:00;;;;;;;20.13;7.35;;;;;;;17.27;93.33;102502.97;10507322;28;20037;-83
2023/05/27 06:34:00;;;;;;;23.20;8.00;;;;;;;17.36;96.44;102488.34;10493574;28;20047;-82
2023/05/27 06:39:01;;;;;;;14.73;5.73;;;;;;;18.37;88.82;102476.84;10464646;28;20040;-83
2023/05/27 06:44:02;;;;;;;21.53;8.03;;;;;;;18.60;83.18;102472.44;10463968;28;20558;-83
2023/05/27 06:49:02;;;;;;;12.43;6.43;;;;;;;18.89;80.17;102470.97;10483913;28;20492;-81
2023/05/27 06:54:03;;;;;;;19.43;6.63;;;;;;;19.42;77.79;102478.28;10483628;28;20136;-80
2023/05/27 06:59:03;;;;;;;14.30;6.93;;;;;;;19.52;75.32;102472.44;10467926;28;20492;-84
2023/05/27 07:04:04;;;;;;;17.90;8.03;;;;;;;20.25;74.49;102468.75;10475282;28;20041;-81
2023/05/27 07:09:04;;;;;;;19.50;7.63;;;;;;;20.23;71.01;102468.69;10471935;28;21460;-85
2023/05/27 07:14:05;;;;;;;19.40;7.70;;;;;;;20.17;71.32;102473.81;10509819;28;20120;-85
2023/05/27 07:19:06;;;;;;;18.27;7.77;;;;;;;21.21;66.05;102471.75;10471167;28;20033;-86
2023/05/27 07:24:07;;;;;;;15.73;8.70;;;;;;;20.93;67.52;102475.34;10484090;28;20762;-82
2023/05/27 07:29:08;;;;;;;18.13;6.67;;;;;;;21.13;68.88;102465.31;10465522;28;20123;-80
2023/05/27 07:34:08;;;;;;;23.58;6.95;;;;;;;22.23;62.43;102460.25;10481106;28;20068;-81
2023/05/27 07:39:09;;;;;;;14.07;6.33;;;;;;;22.30;63.84;102461.31;10482534;28;20540;-82
2023/05/27 07:44:09;;;;;;;20.20;8.67;;;;;;;22.75;62.37;102448.16;10499077;28;20056;-81
2023/05/27 07:49:10;;;;;;;11.93;6.70;;;;;;;23.25;55.96;102448.34;10483273;28;20046;-83
2023/05/27 07:54:11;;;;;;;14.40;7.60;;;;;;;23.07;60.25;102443.47;10471951;28;20053;-82
2023/05/27 07:59:11;;;;;;;26.00;8.70;;;;;;;23.35;60.01;102432.50;10500727;27;20123;-80
2023/05/27 08:04:12;;;;;;;14.23;6.93;;;;;;;23.36;56.48;102427.16;10434155;28;20043;-81
2023/05/27 08:09:12;;;;;;;15.53;8.70;;;;;;;23.95;53.14;102422.88;10451223;28;20077;-81
2023/05/27 08:14:13;;;;;;;20.03;8.27;;;;;;;23.59;52.58;102416.00;10436398;28;20046;-82
2023/05/27 08:19:13;;;;;;;18.13;8.80;;;;;;;23.36;56.01;102408.47;10437973;28;20568;-78
2023/05/27 08:24:16;;;;;;;22.08;8.65;;;;;;;24.12;52.79;102401.78;10473403;28;20045;-80
2023/05/27 08:29:17;;;;;;;24.08;7.55;;;;;;;24.01;53.10;102398.94;10490979;28;20487;-81
2023/05/27 08:34:18;;;;;;;13.87;7.53;;;;;;;24.37;51.04;102401.25;10478163;28;20068;-86
2023/05/27 08:39:18;;;;;;;18.53;6.73;;;;;;;25.03;49.91;102390.53;10491660;28;20040;-81
2023/05/27 08:44:21;;;;;;;17.23;7.90;;;;;;;25.50;52.21;102375.88;10480531;28;20033;-79
2023/05/27 08:49:22;;;;;;;16.10;7.18;;;;;;;25.78;47.74;102377.00;10469108;28;20037;-79
2023/05/27 08:54:22;;;;;;;16.10;6.83;;;;;;;25.71;47.90;102366.25;10469182;28;20119;-78
2023/05/27 08:59:23;;;;;;;16.17;6.83;;;;;;;25.53;46.74;102364.28;10479328;28;20156;-80
2023/05/27 09:04:23;;;;;;;16.07;7.73;;;;;;;25.42;47.30;102361.47;10503009;28;20056;-80
2023/05/27 09:09:24;;;;;;;11.67;6.77;;;;;;;26.00;48.78;102349.47;10490595;28;20119;-79
2023/05/27 09:14:24;;;;;;;18.80;7.77;;;;;;;25.61;48.38;102343.81;10489733;28;20131;-80
2023/05/27 09:19:25;;;;;;;14.43;7.37;;;;;;;25.55;49.55;102336.63;10490685;28;20139;-79
2023/05/27 09:24:26;;;;;;;15.90;8.27;;;;;;;25.97;46.79;102336.03;10480732;28;20068;-83
2023/05/27 09:29:26;;;;;;;15.52;7.07;;;;;;;26.21;45.26;102333.53;10478257;28;20040;-80
2023/05/27 09:34:29;;;;;;;15.13;6.40;;;;;;;25.98;45.44;102322.63;10490767;28;20135;-79
2023/05/27 09:39:29;;;;;;;14.75;6.53;;;;;;;26.19;44.73;102326.34;10486205;28;20071;-80
2023/05/27 09:44:36;;;;;;;13.53;6.23;;;;;;;26.42;45.51;102313.06;10504370;28;20373;-79
2023/05/27 09:49:37;;;;;;;17.98;6.55;;;;;;;26.74;46.60;102312.28;10516651;28;20040;-79
2023/05/27 09:54:38;;;;;;;18.47;7.50;;;;;;;27.17;43.05;102300.75;10480192;28;20025;-79
2023/05/27 09:59:38;;;;;;;20.23;6.80;;;;;;;26.52;42.53;102303.25;10446392;28;20033;-80
2023/05/27 10:04:39;;;;;;;17.00;7.27;;;;;;;27.57;44.51;102291.81;10478950;28;20045;-79
2023/05/27 10:09:39;;;;;;;17.97;6.50;;;;;;;27.80;40.71;102288.22;10469202;28;20125;-80
2023/05/27 10:14:40;;;;;;;15.03;6.23;;;;;;;27.76;43.90;102281.03;10488307;28;20054;-80
2023/05/27 10:19:56;;;;;;;17.40;6.97;;;;;;;27.82;39.83;102281.91;10481351;28;20041;-80
2023/05/27 10:25:10;;;;;;;17.20;6.50;;;;;;;27.15;39.96;102270.28;10445205;28;20060;-80
2023/05/27 10:30:13;;;;;;;14.65;6.03;;;;;;;26.75;43.88;102263.06;10477397;28;20399;-78
2023/05/27 10:35:13;;;;;;;13.25;6.38;;;;;;;27.51;41.29;102257.75;10461540;28;20526;-80
2023/05/27 10:40:24;;;;;;;14.10;5.63;;;;;;;28.11;37.53;102266.59;10470782;28;20044;-80
2023/05/27 10:45:31;;;;;;;13.88;5.47;;;;;;;28.20;38.23;102253.13;10484198;28;20044;-77
2023/05/27 10:50:33;;;;;;;12.38;5.55;;;;;;;26.79;37.72;102250.50;10482319;28;20166;-80
2023/05/27 10:55:34;;;;;;;16.27;6.55;;;;;;;27.14;40.12;102241.63;10478729;28;20419;-81
2023/05/27 11:00:34;;;;;;;13.33;5.67;;;;;;;27.06;37.86;102227.28;10448696;28;20032;-81
2023/05/27 11:05:35;;;;;;;17.83;6.50;;;;;;;26.84;37.63;102224.59;10468868;28;20123;-80
2023/05/27 11:10:35;;;;;;;11.10;4.37;;;;;;;26.46;36.52;102209.28;10482382;28;20035;-78
2023/05/27 11:15:39;;;;;;;12.60;4.80;;;;;;;26.76;37.36;102203.09;10482105;28;20033;-80
2023/05/27 11:20:40;;;;;;;23.95;6.78;;;;;;;26.60;37.52;102212.88;10498981;28;20039;-78
2023/05/27 11:25:44;;;;;;;13.03;5.30;;;;;;;27.33;34.23;102204.91;10484297;28;20388;-78
2023/05/27 11:30:44;;;;;;;15.43;5.38;;;;;;;27.57;34.78;102203.09;10467249;28;20029;-77
2023/05/27 11:35:45;;;;;;;20.73;5.43;;;;;;;27.73;34.12;102195.88;10463389;28;20119;-79
2023/05/27 11:40:45;;;;;;;15.37;5.43;;;;;;;27.64;34.69;102185.16;10443956;28;20039;-79
2023/05/27 11:45:46;;;;;;;22.60;6.40;;;;;;;27.67;33.93;102174.38;10490456;28;20036;-79
2023/05/27 11:50:47;;;;;;;16.07;5.67;;;;;;;27.90;36.13;102176.09;10482414;28;20052;-79
2023/05/27 11:55:47;;;;;;;13.50;6.00;;;;;;;28.66;33.25;102154.16;10478318;28;20174;-80
2023/05/27 12:00:48;;;;;;;18.17;5.30;;;;;;;28.35;34.42;102144.47;10482214;28;20036;-77
2023/05/27 12:05:48;;;;;;;10.17;4.93;;;;;;;28.02;32.79;102149.13;10481939;28;20044;-77
2023/05/27 12:10:53;;;;;;;14.30;5.53;;;;;;;28.20;34.82;102140.09;10482800;28;20048;-79
2023/05/27 12:15:54;;;;;;;15.85;5.88;;;;;;;28.22;33.98;102140.09;10495776;28;20060;-76
2023/05/27 12:20:54;;;;;;;15.93;5.97;;;;;;;27.92;33.98;102131.25;10484439;28;20504;-80
2023/05/27 12:25:55;;;;;;;12.77;4.67;;;;;;;28.05;34.58;102126.72;10479492;28;20049;-79
2023/05/27 12:30:55;;;;;;;15.77;6.37;;;;;;;27.03;35.29;102118.06;10481800;28;20037;-80
2023/05/27 12:35:59;;;;;;;18.33;6.17;;;;;;;27.73;36.88;102104.44;10462913;28;20032;-80
2023/05/27 12:40:59;;;;;;;10.63;6.35;;;;;;;27.89;34.62;102107.97;10464530;28;20511;-79
2023/05/27 12:46:01;;;;;;;10.97;5.10;;;;;;;27.69;34.65;102095.50;10480959;28;20037;-81
2023/05/27 12:51:02;;;;;;;16.27;5.93;;;;;;;25.99;38.29;102080.34;10481789;28;20489;-79
2023/05/27 12:56:03;;;;;;;12.95;6.10;;;;;;;25.02;41.16;102086.13;10441317;28;20029;-79
2023/05/27 13:01:04;;;;;;;17.17;5.50;;;;;;;25.67;39.46;102077.59;10441005;28;20041;-79
2023/05/27 13:06:04;;;;;;;18.67;5.20;;;;;;;26.92;34.65;102074.22;10497838;28;20127;-78
2023/05/27 13:11:05;;;;;;;16.33;5.73;;;;;;;27.96;34.46;102071.16;10464083;28;20384;-77
2023/05/27 13:16:06;;;;;;;24.47;7.00;;;;;;;28.02;36.26;102063.03;10448664;28;20128;-79
2023/05/27 13:21:06;;;;;;;14.13;5.18;;;;;;;27.62;33.34;102064.16;10492546;28;20037;-82
2023/05/27 13:26:07;;;;;;;11.90;5.03;;;;;;;27.42;36.66;102053.44;10492560;28;20767;-79
2023/05/27 13:31:07;;;;;;;15.33;5.83;;;;;;;26.41;34.85;102050.94;10473070;28;20067;-79
2023/05/27 13:36:08;;;;;;;13.80;5.17;;;;;;;25.36;38.65;102049.72;10521226;28;20032;-78
2023/05/27 13:41:08;;;;;;;15.23;4.73;;;;;;;24.84;39.62;102050.31;10467959;28;20132;-80
2023/05/27 13:46:09;;;;;;;16.00;5.57;;;;;;;25.67;38.93;102024.84;10479748;28;20087;-81
2023/05/27 13:51:10;;;;;;;9.63;3.90;;;;;;;26.78;35.65;102025.84;10462817;28;20078;-80
2023/05/27 13:56:10;;;;;;;16.13;5.67;;;;;;;25.11;37.18;102015.69;10469512;28;20064;-81
2023/05/27 14:01:11;;;;;;;16.63;5.40;;;;;;;23.66;38.26;102010.84;10460584;28;20129;-80
2023/05/27 14:06:11;;;;;;;9.30;3.90;;;;;;;23.59;40.50;102007.19;10478771;28;20064;-80
2023/05/27 14:11:12;;;;;;;11.67;5.37;;;;;;;24.91;41.40;102005.75;10485487;28;20135;-80
2023/05/27 14:16:12;;;;;;;19.80;6.20;;;;;;;26.28;38.50;101991.00;10479766;28;20433;-80
2023/05/27 14:21:14;;;;;;;13.80;5.53;;;;;;;26.90;35.38;101995.44;10444537;28;20065;-77
2023/05/27 14:26:15;;;;;;;;;;;;;;;26.84;32.18;101980.22;10478118;28;20041;-81
2023/05/27 14:31:15;;;;;;;13.45;5.38;;;;;;;26.61;35.47;101974.88;10460957;28;19921;-78
2023/05/27 14:36:16;;;;;;;14.40;6.27;;;;;;;26.18;38.96;101962.38;10450161;28;20155;-79
2023/05/27 14:41:16;;;;;;;9.90;4.80;;;;;;;25.49;35.89;101964.94;10485065;28;20040;-79
2023/05/27 14:46:17;;;;;;;11.77;4.60;;;;;;;25.82;38.40;101959.66;10481346;28;20580;-81
2023/05/27 14:51:17;;;;;;;12.93;4.97;;;;;;;25.87;36.39;101955.19;10477352;28;20116;-82
2023/05/27 14:56:18;;;;;;;11.77;5.10;;;;;;;25.79;36.42;101943.56;10477051;28;20139;-80
2023/05/27 15:01:18;;;;;;;9.93;5.20;;;;;;;25.28;35.74;101940.72;10445190;28;20155;-81
2023/05/27 15:06:19;;;;;;;17.33;5.37;;;;;;;23.94;37.34;101941.66;10478675;28;20071;-82
2023/05/27 15:11:20;;;;;;;15.97;5.77;;;;;;;23.36;36.58;101934.81;10484247;28;20028;-78
2023/05/27 15:16:21;;;;;;;14.90;5.97;;;;;;;23.14;38.16;101929.19;10480227;28;20069;-81
2023/05/27 15:21:21;;;;;;;11.93;4.57;;;;;;;23.03;38.83;101934.38;10442545;28;20114;-80
2023/05/27 15:26:22;;;;;;;11.23;4.77;;;;;;;22.91;42.25;101926.22;10443475;28;20033;-80
2023/05/27 15:31:22;;;;;;;9.27;4.77;;;;;;;22.87;43.07;101928.84;10475863;28;20511;-79
2023/05/27 15:36:24;;;;;;;13.43;4.88;;;;;;;22.75;41.93;101930.47;10456926;28;20426;-77
2023/05/27 15:41:25;;;;;;;13.13;4.93;;;;;;;22.55;42.13;101928.41;10478382;28;20067;-78
2023/05/27 15:46:26;;;;;;;14.30;6.93;;;;;;;22.39;43.00;101916.56;10479389;28;20044;-78
2023/05/27 15:51:26;;;;;;;13.33;5.93;;;;;;;22.32;43.39;101912.91;10475769;28;20112;-79
2023/05/27 15:56:27;;;;;;;16.90;5.50;;;;;;;22.18;43.55;101911.81;10476976;28;21891;-80
2023/05/27 16:01:27;;;;;;;11.90;6.07;;;;;;;22.09;43.86;101917.88;10483688;28;20036;-80
2023/05/27 16:06:28;;;;;;;11.73;6.87;;;;;;;22.05;41.21;101908.03;10482807;28;20071;-80
2023/05/27 16:11:29;;;;;;;17.87;5.60;;;;;;;21.77;43.30;101899.56;10480034;28;20036;-79
2023/05/27 16:16:29;;;;;;;13.70;5.23;;;;;;;21.82;43.41;101897.88;10481979;28;20052;-79
2023/05/27 16:21:31;;;;;;;8.07;5.07;;;;;;;21.77;44.96;101889.81;10464721;28;20514;-79
2023/05/27 16:26:31;;;;;;;17.73;7.85;;;;;;;21.75;45.35;101886.22;10462189;28;20473;-78
2023/05/27 16:31:32;;;;;;;13.83;5.37;;;;;;;21.64;44.87;101886.03;10478005;28;20147;-79
2023/05/27 16:36:32;;;;;;;13.00;5.20;;;;;;;21.39;43.76;101871.34;10515538;28;20040;-78
2023/05/27 16:41:33;;;;;;;9.83;4.87;;;;;;;21.34;46.05;101865.91;10465075;28;20052;-78
2023/05/27 16:46:34;;;;;;;11.37;6.60;;;;;;;21.27;44.32;101870.25;10473475;28;20104;-79
2023/05/27 16:51:35;;;;;;;15.27;6.80;;;;;;;21.11;44.37;101866.34;10456911;28;21426;-77
2023/05/27 16:56:36;;;;;;;9.40;5.30;;;;;;;21.08;44.60;101868.09;10488595;28;20097;-79
2023/05/27 17:01:36;;;;;;;10.73;5.07;;;;;;;20.97;46.20;101870.50;10489685;28;20120;-79
2023/05/27 17:06:37;;;;;;;14.10;4.30;;;;;;;20.81;46.50;101861.31;10487531;28;20041;-80
2023/05/27 17:11:37;;;;;;;9.10;4.87;;;;;;;20.83;47.14;101863.13;10447999;28;20069;-80
2023/05/27 17:16:38;;;;;;;17.73;5.63;;;;;;;20.72;47.07;101861.97;10444789;28;20504;-78
2023/05/27 17:21:38;;;;;;;11.83;4.97;;;;;;;20.62;46.64;101852.91;10446692;28;20118;-79
2023/05/27 17:26:39;;;;;;;15.40;6.70;;;;;;;20.43;47.39;101846.28;10443415;28;20037;-79
2023/05/27 17:31:39;;;;;;;12.57;5.60;;;;;;;20.26;48.07;101851.22;10445373;28;20507;-79
2023/05/27 17:36:40;;;;;;;13.90;5.83;;;;;;;20.03;49.98;101848.94;10459487;28;20190;-79
2023/05/27 17:41:41;;;;;;;12.20;5.57;;;;;;;19.74;51.46;101845.50;10485738;28;20063;-78
2023/05/27 17:46:41;;;;;;;9.77;5.40;;;;;;;19.54;53.79;101840.56;10518509;28;20502;-77
2023/05/27 17:51:42;;;;;;;13.90;4.60;;;;;;;19.52;53.35;101850.25;10486419;28;20040;-80
2023/05/27 17:56:42;;;;;;;8.95;4.32;;;;;;;19.28;57.33;101851.38;10470135;28;20123;-79
2023/05/27 18:01:43;;;;;;;14.77;4.40;;;;;;;19.01;62.23;101848.88;10483808;28;20436;-78
2023/05/27 18:06:43;;;;;;;12.32;5.72;;;;;;;18.79;61.40;101843.81;10481840;28;20039;-78
2023/05/27 18:11:44;;;;;;;12.93;5.40;;;;;;;18.59;67.56;101844.97;10476167;28;20042;-77
2023/05/27 18:16:44;;;;;;;12.20;5.65;;;;;;;18.33;65.29;101853.00;10477128;28;20041;-77
2023/05/27 18:21:45;;;;;;;8.90;4.47;;;;;;;18.24;64.75;101853.66;10482350;28;20071;-78
2023/05/27 18:26:45;;;;;;;8.27;5.13;;;;;;;17.87;67.30;101845.34;10482352;28;20123;-79
2023/05/27 18:31:46;;;;;;;9.10;4.80;;;;;;;17.60;70.29;101851.50;10511202;28;20040;-79
2023/05/27 18:36:47;;;;;;;12.45;6.03;;;;;;;17.22;75.84;101851.06;10478164;28;20041;-77
2023/05/27 18:41:47;;;;;;;13.95;5.22;;;;;;;16.86;92.60;101844.47;10475569;28;20028;-78
2023/05/27 18:46:47;;;;;;;8.70;4.63;;;;;;;16.49;100.00;101842.16;10477028;28;20181;-79
2023/05/27 18:51:50;;;;;;;11.13;5.05;;;;;;;16.14;100.00;101861.94;10481728;28;20032;-78
2023/05/27 18:56:50;;;;;;;10.70;5.10;;;;;;;15.76;100.00;101852.41;10473061;28;20056;-77
2023/05/27 19:01:51;;;;;;;14.57;5.80;;;;;;;15.47;100.00;101849.44;10478872;28;20125;-76
2023/05/27 19:06:51;;;;;;;8.55;4.10;;;;;;;15.14;100.00;101847.13;10483433;28;20068;-77
2023/05/27 19:11:52;;;;;;;13.00;6.57;;;;;;;14.90;100.00;101848.72;10442506;28;20040;-76
2023/05/27 19:16:52;;;;;;;9.15;5.38;;;;;;;14.67;100.00;101848.50;10472342;28;20036;-76
2023/05/27 19:21:53;;;;;;;10.50;4.90;;;;;;;14.39;100.00;101860.38;10496927;28;20051;-77
2023/05/27 19:26:54;;;;;;;10.43;4.07;;;;;;;14.09;100.00;101855.44;10484519;28;20560;-76
2023/05/27 19:31:54;;;;;;;10.70;5.32;;;;;;;13.86;100.00;101858.66;10480912;28;20092;-76
2023/05/27 19:36:55;;;;;;;11.00;4.63;;;;;;;13.59;100.00;101854.72;10481149;28;20052;-77
2023/05/27 19:41:56;;;;;;;11.52;5.07;;;;;;;13.31;100.00;101863.78;10483295;27;20089;-76
2023/05/27 19:46:56;;;;;;;17.10;5.00;;;;;;;13.15;100.00;101867.31;10480450;28;20115;-77
2023/05/27 19:51:58;;;;;;;13.60;4.70;;;;;;;12.88;100.00;101865.00;10481407;28;20560;-77
2023/05/27 19:57:00;;;;;;;8.70;4.28;;;;;;;12.71;100.00;101873.69;10483378;28;20036;-76
2023/05/27 20:02:01;;;;;;;14.75;6.32;;;;;;;12.52;100.00;101874.41;10482490;28;20033;-76
2023/05/27 20:07:02;;;;;;;12.75;4.82;;;;;;;12.33;100.00;101870.75;10469155;28;20123;-77
2023/05/27 20:12:02;;;;;;;12.02;4.78;;;;;;;12.20;100.00;101874.38;10483920;28;20492;-76
2023/05/27 20:17:03;;;;;;;11.93;5.20;;;;;;;11.99;100.00;101871.41;10480672;28;20085;-77
2023/05/27 20:22:04;;;;;;;15.07;5.00;;;;;;;11.81;100.00;101876.47;10481597;28;20051;-76
2023/05/27 20:27:05;;;;;;;12.27;5.72;;;;;;;11.68;100.00;101877.50;10430341;28;20040;-77
2023/05/27 20:32:06;;;;;;;15.25;5.78;;;;;;;11.59;100.00;101885.69;10456055;28;20040;-77
2023/05/27 20:37:06;;;;;;;12.40;6.72;;;;;;;11.53;100.00;101882.72;10444905;28;20068;-78
2023/05/27 20:42:07;;;;;;;10.85;5.35;;;;;;;11.46;100.00;101879.72;10457311;28;20454;-78
2023/05/27 20:47:08;;;;;;;12.75;5.18;;;;;;;11.35;100.00;101874.66;10436817;28;20060;-78
2023/05/27 20:52:09;;;;;;;12.68;5.20;;;;;;;11.30;100.00;101875.28;10437096;28;20043;-79
2023/05/27 20:57:09;;;;;;;11.38;6.00;;;;;;;11.19;100.00;101872.81;10447989;28;20040;-79
2023/05/27 21:02:12;;;;;;;16.83;8.25;;;;;;;11.06;100.00;101879.03;10413432;28;20057;-79
2023/05/27 21:07:12;;;;;;;;;;;;;;;10.86;100.00;101878.69;10425794;28;20037;-79
2023/05/27 21:12:12;;;;;;;15.97;7.03;;;;;;;10.69;100.00;101874.97;10454380;28;19925;-79
2023/05/27 21:17:13;;;;;;;14.02;6.90;;;;;;;10.62;100.00;101880.63;10464596;28;20351;-79
2023/05/27 21:22:13;;;;;;;16.23;6.75;;;;;;;10.61;100.00;101879.75;10441352;28;20423;-79
2023/05/27 21:27:14;;;;;;;11.55;5.72;;;;;;;10.51;100.00;101866.88;10441830;28;20124;-79
2023/05/27 21:32:15;;;;;;;15.60;5.93;;;;;;;10.42;100.00;101868.09;10415313;28;20171;-78
2023/05/27 21:37:15;;;;;;;11.38;7.13;;;;;;;10.38;100.00;101866.06;10417176;28;20037;-79
2023/05/27 21:42:18;;;;;;;19.33;5.40;;;;;;;10.28;100.00;101866.28;10477905;28;20128;-79
2023/05/27 21:47:20;;;;;;;15.65;5.93;;;;;;;10.17;100.00;101862.94;10468404;28;20063;-79
2023/05/27 21:52:23;;;;;;;12.52;6.82;;;;;;;10.03;100.00;101853.28;10478381;28;20032;-79
2023/05/27 21:57:24;;;;;;;12.98;6.60;;;;;;;9.84;100.00;101844.22;10474773;28;20044;-79
2023/05/27 22:02:24;;;;;;;10.60;6.25;;;;;;;9.81;100.00;101846.63;10464326;28;20036;-79
2023/05/27 22:07:25;;;;;;;23.15;6.63;;;;;;;9.74;100.00;101850.56;10455007;28;20073;-78
2023/05/27 22:12:25;;;;;;;14.82;6.90;;;;;;;9.72;100.00;101848.63;10450297;28;20452;-78
2023/05/27 22:17:26;;;;;;;14.25;8.27;;;;;;;9.64;100.00;101853.38;10486646;28;20032;-79
2023/05/27 22:22:26;;;;;;;15.27;7.55;;;;;;;9.57;100.00;101852.03;10483088;28;20120;-79
2023/05/27 22:27:27;;;;;;;12.98;7.70;;;;;;;9.47;100.00;101849.59;10483078;28;20442;-78
2023/05/27 22:32:28;;;;;;;13.25;6.47;;;;;;;9.36;100.00;101847.16;10485965;28;20488;-78
2023/05/27 22:37:28;;;;;;;11.32;7.88;;;;;;;9.35;100.00;101847.06;10469739;28;20113;-78
2023/05/27 22:42:29;;;;;;;12.68;8.23;;;;;;;9.35;100.00;101844.47;10483911;28;20060;-79
2023/05/27 22:47:29;;;;;;;19.75;7.30;;;;;;;9.31;100.00;101834.59;10497469;28;20033;-79